Time;durP1;ratioP1;P1;durP2;ratioP2;P2;SDS_P1;SDS_P2;PMS_P1;PMS_P2;Temp;Humidity;BMP_temperature;BMP_pressure;BME280_temperature;BME280_humidity;BME280_pressure;Samples;Min_cycle;Max_cycle;Signal;HPM_P1;HPM_P2
2021/07/10 00:00:41;;;;;;;0.20;0.20;;;;;;;16.98;47.90;92882.22;6241123;22;20015;-95
2021/07/10 00:03:30;;;;;;;;;;;;;;;;;;;;;
2021/07/10 00:06:26;;;;;;;0.20;0.20;;;;;;;16.61;48.31;92822.88;6312038;22;20019;-95
2021/07/10 00:16:12;;;;;;;0.10;0.10;;;;;;;16.20;51.62;92814.41;6316155;22;20076;-93
2021/07/10 00:19:49;;;;;;;0.20;0.20;;;;;;;16.39;50.93;92851.06;6292486;22;20453;-95
2021/07/10 00:23:04;;;;;;;0.20;0.20;;;;;;;16.29;49.61;92845.31;6304128;22;20075;-95
2021/07/10 00:26:36;;;;;;;0.15;0.15;;;;;;;16.57;49.11;92872.16;6306010;22;20046;-94
2021/07/10 00:29:37;;;;;;;;;;;;;;;;;;;;;
2021/07/10 00:32:39;;;;;;;0.20;0.20;;;;;;;16.31;50.62;92814.09;6323008;22;20042;-94
2021/07/10 00:35:45;;;;;;;0.20;0.20;;;;;;;16.26;50.13;92812.41;6290929;22;20106;-95
2021/07/10 00:38:56;;;;;;;;;;;;;;;;;;;;;
2021/07/10 00:45:46;;;;;;;0.10;0.10;;;;;;;16.41;51.61;92854.19;6317545;22;20047;-94
2021/07/10 00:48:43;;;;;;;;;;;;;;;;;;;;;
2021/07/10 00:52:04;;;;;;;0.10;0.10;;;;;;;15.79;52.46;92785.88;6336859;22;20018;-94
2021/07/10 00:54:45;;;;;;;0.13;0.13;;;;;;;15.70;53.07;92782.41;6315040;22;20014;-94
2021/07/10 00:57:29;;;;;;;0.20;0.20;;;;;;;15.79;53.52;92815.66;6315172;22;20497;-95
2021/07/10 01:04:00;;;;;;;0.28;0.28;;;;;;;15.58;53.74;92810.19;6299652;22;20015;-95
2021/07/10 01:07:09;;;;;;;;;;;;;;;;;;;;;
2021/07/10 01:10:21;;;;;;;;;;;;;;;;;;;;;
2021/07/10 01:13:37;;;;;;;0.20;0.20;;;;;;;15.41;53.96;92804.88;6324055;22;20457;-95
2021/07/10 01:16:48;;;;;;;0.20;0.20;;;;;;;15.25;54.18;92780.03;6295644;22;20090;-94
2021/07/10 01:23:50;;;;;;;;;;;;;;;;;;;;;
2021/07/10 01:27:00;;;;;;;;;;;;;;;;;;;;;
2021/07/10 01:29:58;;;;;;;0.20;0.20;;;;;;;15.10;54.46;92770.69;6298323;22;20029;-94
2021/07/10 01:33:07;;;;;;;0.20;0.20;;;;;;;15.09;55.19;92764.63;6315010;22;20007;-94
2021/07/10 01:43:02;;;;;;;0.25;0.25;;;;;;;15.02;54.40;92768.78;6330981;22;20023;-94
2021/07/10 01:49:29;;;;;;;0.10;0.10;;;;;;;15.30;55.30;92817.56;6341672;22;20089;-93
2021/07/10 01:52:33;;;;;;;0.13;0.13;;;;;;;14.87;55.77;92759.47;6297025;22;20019;-95
2021/07/10 01:56:02;;;;;;;0.13;0.13;;;;;;;14.87;56.63;92762.88;6299027;22;20093;-95
2021/07/10 01:58:57;;;;;;;0.25;0.22;;;;;;;14.78;55.86;92765.47;6318981;22;20054;-94
2021/07/10 02:01:47;;;;;;;0.20;0.20;;;;;;;14.91;55.96;92789.41;6283650;22;20015;-93
2021/07/10 02:11:41;;;;;;;0.30;0.30;;;;;;;14.70;56.88;92768.88;6292269;22;20086;-95
2021/07/10 02:14:54;;;;;;;;;;;;;;;;;;;;;
2021/07/10 02:21:31;;;;;;;0.20;0.20;;;;;;;14.48;58.41;92750.47;6197656;23;20077;-94
2021/07/10 02:24:46;;;;;;;0.20;0.20;;;;;;;14.80;57.61;92802.06;6190788;23;20037;-95
2021/07/10 02:27:52;;;;;;;;;;;;;;;;;;;;;
2021/07/10 02:30:57;;;;;;;;;;;;;;;;;;;;;
2021/07/10 02:36:57;;;;;;;0.30;0.30;;;;;;;14.65;59.72;92779.53;6171630;23;20020;-94
2021/07/10 02:40:26;;;;;;;;;;;;;;;;;;;;;
2021/07/10 02:46:46;;;;;;;0.30;0.30;;;;;;;14.51;59.92;92781.44;6202601;23;20092;-96
2021/07/10 02:49:38;;;;;;;0.20;0.20;;;;;;;14.20;60.35;92740.09;6168204;23;20016;-96
2021/07/10 02:56:05;;;;;;;0.32;0.32;;;;;;;14.40;60.18;92780.16;6284551;22;20075;-95
2021/07/10 02:59:13;;;;;;;;;;;;;;;;;;;;;
2021/07/10 03:02:11;;;;;;;;;;;;;;;;;;;;;
2021/07/10 03:05:38;;;;;;;;;;;;;;;;;;;;;
2021/07/10 03:08:57;;;;;;;0.20;0.20;;;;;;;14.01;59.09;92732.41;6341187;22;20086;-93
2021/07/10 03:15:20;;;;;;;;;;;;;;;;;;;;;
2021/07/10 03:18:26;;;;;;;;;;;;;;;;;;;;;
2021/07/10 03:21:28;;;;;;;0.25;0.25;;;;;;;14.05;59.84;92758.88;6340747;22;20089;-94
2021/07/10 03:24:24;;;;;;;0.20;0.20;;;;;;;14.03;59.88;92761.84;6301988;22;20019;-93
2021/07/10 03:27:47;;;;;;;0.30;0.30;;;;;;;14.13;59.95;92787.13;6315835;22;20091;-95
2021/07/10 03:30:52;;;;;;;;;;;;;;;;;;;;;
2021/07/10 03:34:17;;;;;;;;;;;;;;;;;;;;;
2021/07/10 03:40:36;;;;;;;0.20;0.20;;;;;;;14.01;60.85;92773.75;6219418;23;20498;-94
2021/07/10 03:43:38;;;;;;;;;;;;;;;;;;;;;
2021/07/10 03:46:51;;;;;;;;;;;;;;;;;;;;;
2021/07/10 03:52:55;;;;;;;0.32;0.32;;;;;;;13.82;61.55;92758.13;6339205;22;20038;-95
2021/07/10 03:55:49;;;;;;;0.20;0.20;;;;;;;13.85;61.64;92760.16;6262428;22;20041;-94
2021/07/10 03:59:16;;;;;;;0.30;0.30;;;;;;;13.87;61.75;92769.31;6314921;22;20086;-94
2021/07/10 04:05:39;;;;;;;0.20;0.20;;;;;;;14.08;61.81;92795.91;6317909;22;20085;-95
2021/07/10 04:08:44;;;;;;;0.20;0.20;;;;;;;13.90;61.41;92763.44;6289596;22;20023;-93
2021/07/10 04:11:49;;;;;;;0.20;0.20;;;;;;;14.01;61.75;92779.78;6267225;22;20019;-94
2021/07/10 04:14:59;;;;;;;0.30;0.30;;;;;;;13.95;61.52;92762.53;6281396;22;20276;-92
2021/07/10 04:18:14;;;;;;;;;;;;;;;;;;;;;
2021/07/10 04:22:04;;;;;;;;;;;;;;;;;;;;;
2021/07/10 04:25:03;;;;;;;0.40;0.40;;;;;;;14.34;62.00;92806.63;6328461;22;20036;-94
2021/07/10 04:27:51;;;;;;;0.30;0.30;;;;;;;14.38;61.92;92810.19;6292791;22;20011;-93
2021/07/10 04:30:39;;;;;;;;;;;;;;;;;;;;;
2021/07/10 04:33:51;;;;;;;0.25;0.25;;;;;;;14.26;62.19;92775.75;6302076;22;20034;-93
2021/07/10 04:36:38;;;;;;;0.20;0.20;;;;;;;14.28;62.22;92770.19;6316700;22;20094;-94
2021/07/10 04:40:00;;;;;;;0.20;0.20;;;;;;;14.37;61.78;92778.91;6314442;22;20102;-93
2021/07/10 04:43:14;;;;;;;;;;;;;;;;;;;;;
2021/07/10 04:53:42;;;;;;;0.20;0.20;;;;;;;14.98;63.67;92830.03;6175011;23;20028;-92
2021/07/10 05:24:03;;;;;;;;;;;;;;;;;;;;;
2021/07/10 06:38:05;;;;;;;0.60;0.60;;;;;;;30.06;31.34;92829.41;6315114;22;20021;-92
2021/07/10 06:44:11;;;;;;;;;;;;;;;;;;;;;
2021/07/10 06:47:24;;;;;;;;;;;;;;;;;;;;;
2021/07/10 06:50:55;;;;;;;0.38;0.38;;;;;;;29.06;34.08;92835.53;6296143;22;20019;-94
2021/07/10 06:53:32;;;;;;;0.20;0.20;;;;;;;27.62;37.48;92811.72;6305049;22;20031;-91
2021/07/10 06:56:16;;;;;;;0.20;0.20;;;;;;;26.30;39.34;92839.03;6281062;22;20072;-92
2021/07/10 06:59:05;;;;;;;0.20;0.20;;;;;;;24.10;44.30;92818.66;6288964;22;20093;-91
2021/07/10 07:01:36;;;;;;;0.10;0.10;;;;;;;23.81;45.69;92817.50;6308807;22;20066;-92
2021/07/10 07:04:37;;;;;;;;;;;;;;;;;;;;;
2021/07/10 07:07:25;;;;;;;0.45;0.38;;;;;;;22.72;49.23;92816.06;6309585;22;20049;-90
2021/07/10 07:10:19;;;;;;;0.57;0.40;;;;;;;21.81;51.64;92808.19;6304564;22;20032;-91
2021/07/10 07:19:36;;;;;;;;;;;;;;;;;;;;;
2021/07/10 07:22:04;;;;;;;0.20;0.20;;;;;;;21.43;53.08;92864.78;6287039;22;20031;-77
2021/07/10 07:24:30;;;;;;;0.10;0.10;;;;;;;21.63;50.73;92865.63;6250940;22;20410;-77
2021/07/10 07:26:55;;;;;;;0.20;0.20;;;;;;;21.66;51.03;92861.50;6300997;22;20055;-77
2021/07/10 07:29:21;;;;;;;0.15;0.15;;;;;;;21.92;51.72;92863.59;6302910;22;20003;-76
2021/07/10 07:31:47;;;;;;;0.30;0.30;;;;;;;22.04;50.06;92868.81;6245436;22;20020;-77
2021/07/10 07:34:13;;;;;;;0.45;0.45;;;;;;;21.63;51.68;92857.63;6245119;22;20328;-77
2021/07/10 07:36:39;;;;;;;0.10;0.10;;;;;;;21.63;53.86;92862.97;6220813;22;20015;-77
2021/07/10 07:39:06;;;;;;;0.10;0.10;;;;;;;21.87;53.25;92866.56;6272135;22;20007;-77
2021/07/10 07:41:36;;;;;;;0.10;0.10;;;;;;;22.05;51.94;92865.03;6245113;22;20016;-77
2021/07/10 07:44:04;;;;;;;0.20;0.20;;;;;;;21.73;53.28;92866.97;6272374;22;20358;-77
2021/07/10 07:46:30;;;;;;;0.20;0.20;;;;;;;22.24;51.96;92869.66;6272488;22;20019;-76
2021/07/10 07:48:55;;;;;;;0.10;0.10;;;;;;;22.48;53.13;92867.84;6271611;22;20438;-77
2021/07/10 07:51:22;;;;;;;0.30;0.30;;;;;;;22.48;51.95;92868.63;6271814;22;20050;-77
2021/07/10 07:53:50;;;;;;;0.20;0.20;;;;;;;22.26;52.35;92861.31;6270010;22;20011;-77
2021/07/10 07:56:16;;;;;;;0.35;0.35;;;;;;;22.37;52.34;92863.06;6272106;22;20035;-77
2021/07/10 07:58:43;;;;;;;0.35;0.32;;;;;;;22.44;52.12;92863.19;6272404;22;20470;-76
2021/07/10 08:01:09;;;;;;;0.32;0.32;;;;;;;22.53;52.01;92854.22;6269785;22;20015;-77
2021/07/10 08:03:35;;;;;;;0.20;0.20;;;;;;;22.17;52.42;92856.91;6245128;22;20327;-76
2021/07/10 08:06:02;;;;;;;0.47;0.40;;;;;;;22.22;51.34;92861.22;6272214;22;20467;-77
2021/07/10 08:08:28;;;;;;;0.50;0.50;;;;;;;21.89;53.11;92859.00;6270805;22;20015;-76
2021/07/10 08:10:53;;;;;;;0.43;0.43;;;;;;;22.36;52.10;92860.72;6244736;22;20019;-77
2021/07/10 08:13:20;;;;;;;0.20;0.20;;;;;;;22.01;51.87;92861.53;6270611;22;20011;-77
2021/07/10 08:15:45;;;;;;;0.20;0.20;;;;;;;22.06;51.61;92861.25;6296749;22;20004;-77
2021/07/10 08:18:11;;;;;;;0.30;0.30;;;;;;;22.03;52.76;92862.72;6271044;22;20500;-77
2021/07/10 08:20:37;;;;;;;0.10;0.10;;;;;;;21.76;52.07;92859.09;6271192;22;20459;-77
2021/07/10 08:23:04;;;;;;;0.40;0.40;;;;;;;21.37;53.00;92858.16;6270270;22;20020;-77
2021/07/10 08:25:30;;;;;;;0.40;0.40;;;;;;;21.59;53.07;92857.56;6245700;22;20020;-77
2021/07/10 08:27:57;;;;;;;0.32;0.30;;;;;;;21.38;52.64;92862.34;6244614;22;20030;-77
2021/07/10 08:30:23;;;;;;;0.38;0.25;;;;;;;22.00;51.59;92857.31;6244354;22;20015;-75
2021/07/10 08:32:50;;;;;;;0.30;0.30;;;;;;;21.91;51.36;92854.84;6270764;22;20023;-77
2021/07/10 08:35:17;;;;;;;0.20;0.20;;;;;;;22.23;50.42;92857.44;6272391;22;20054;-76
2021/07/10 08:37:43;;;;;;;0.13;0.13;;;;;;;22.08;50.27;92861.66;6272247;22;20031;-77
2021/07/10 08:40:10;;;;;;;0.55;0.55;;;;;;;21.81;50.79;92855.38;6270034;22;20564;-76
2021/07/10 08:42:36;;;;;;;0.30;0.30;;;;;;;22.01;48.83;92856.19;6272930;22;20016;-76
2021/07/10 08:45:08;;;;;;;0.13;0.13;;;;;;;21.86;51.14;92863.09;6274148;22;20000;-75
2021/07/10 08:47:35;;;;;;;0.28;0.28;;;;;;;22.11;48.65;92866.31;6274587;22;20016;-75
2021/07/10 08:50:01;;;;;;;0.20;0.20;;;;;;;22.13;49.59;92866.72;6271824;22;20043;-77
2021/07/10 08:52:27;;;;;;;0.30;0.30;;;;;;;22.58;49.51;92862.69;6274058;22;20482;-76
2021/07/10 08:54:53;;;;;;;0.65;0.38;;;;;;;22.72;47.35;92859.56;6246731;22;20083;-76
2021/07/10 08:57:20;;;;;;;0.30;0.30;;;;;;;22.44;46.51;92862.44;6274049;22;20000;-76
2021/07/10 08:59:46;;;;;;;0.20;0.20;;;;;;;22.83;47.28;92867.75;6272682;22;20082;-77
2021/07/10 09:02:12;;;;;;;0.20;0.20;;;;;;;22.78;47.19;92868.03;6271462;22;20496;-76
2021/07/10 09:04:39;;;;;;;0.30;0.30;;;;;;;23.07;47.87;92867.44;6272173;22;20008;-76
2021/07/10 09:07:05;;;;;;;0.40;0.40;;;;;;;23.05;47.16;92874.28;6273839;22;20010;-76
2021/07/10 09:09:47;;;;;;;0.20;0.20;;;;;;;23.19;46.66;92873.75;6273875;22;20383;-76
2021/07/10 09:12:13;;;;;;;;;;;;;;;23.06;45.60;92871.25;6273943;22;20012;-76
2021/07/10 09:14:41;;;;;;;0.75;0.50;;;;;;;23.18;47.58;92872.97;6274125;22;19907;-76
2021/07/10 09:17:21;;;;;;;0.30;0.30;;;;;;;22.96;47.80;92876.38;6272762;22;20320;-76
2021/07/10 09:19:48;;;;;;;0.45;0.40;;;;;;;22.73;48.72;92874.44;6272843;22;20039;-76
2021/07/10 09:22:32;;;;;;;0.20;0.20;;;;;;;22.68;48.40;92871.28;6273522;22;20044;-76
2021/07/10 09:24:58;;;;;;;0.28;0.28;;;;;;;22.72;46.27;92862.22;6273765;22;20505;-76
2021/07/10 09:27:25;;;;;;;0.30;0.30;;;;;;;22.54;47.78;92872.56;6247179;22;20439;-76
2021/07/10 09:29:51;;;;;;;0.20;0.20;;;;;;;22.71;46.29;92875.91;6274049;22;20488;-76
2021/07/10 09:32:19;;;;;;;0.22;0.22;;;;;;;22.54;45.35;92875.22;6273389;22;20007;-76
2021/07/10 09:34:53;;;;;;;0.20;0.20;;;;;;;22.68;46.94;92871.28;6273091;22;20313;-76
2021/07/10 09:37:24;;;;;;;0.40;0.40;;;;;;;22.52;48.03;92869.47;6274065;22;20382;-77
2021/07/10 09:39:59;;;;;;;0.20;0.20;;;;;;;22.69;46.44;92872.81;6273269;22;20015;-76
2021/07/10 09:42:36;;;;;;;0.40;0.40;;;;;;;22.87;45.42;92873.91;6272922;22;20450;-76
2021/07/10 09:45:07;;;;;;;0.63;0.47;;;;;;;23.00;44.31;92867.34;6271347;22;20027;-76
2021/07/10 09:47:36;;;;;;;0.10;0.10;;;;;;;23.21;44.69;92874.16;6274214;22;20020;-76
2021/07/10 09:50:06;;;;;;;0.30;0.30;;;;;;;22.72;46.62;92872.09;6272621;22;20027;-76
2021/07/10 09:52:35;;;;;;;0.40;0.40;;;;;;;22.96;45.04;92874.47;6274171;22;20011;-75
2021/07/10 09:55:00;;;;;;;0.30;0.30;;;;;;;23.43;44.16;92876.06;6273474;22;19996;-76
2021/07/10 09:57:27;;;;;;;0.63;0.50;;;;;;;23.68;45.49;92873.03;6272866;22;20051;-75
2021/07/10 09:59:55;;;;;;;0.30;0.30;;;;;;;23.29;46.19;92867.84;6271946;22;20478;-76
2021/07/10 10:02:53;;;;;;;0.20;0.20;;;;;;;23.07;46.84;92867.44;6270428;22;20065;-75
2021/07/10 10:05:41;;;;;;;0.30;0.30;;;;;;;23.84;45.59;92854.97;6272400;22;20018;-76
2021/07/10 10:08:06;;;;;;;0.40;0.38;;;;;;;23.91;44.64;92862.31;6271759;22;20015;-75
2021/07/10 10:10:35;;;;;;;0.30;0.30;;;;;;;23.34;46.63;92862.19;6245843;22;20012;-76
2021/07/10 10:13:09;;;;;;;0.20;0.20;;;;;;;23.74;42.20;92866.25;6260736;22;20007;-76
2021/07/10 10:15:36;;;;;;;0.50;0.50;;;;;;;23.75;44.31;92862.47;6274184;22;20522;-77
2021/07/10 10:18:03;;;;;;;0.20;0.20;;;;;;;23.18;45.11;92866.88;6273436;22;20000;-77
2021/07/10 10:20:29;;;;;;;0.20;0.20;;;;;;;23.72;45.07;92865.06;6274614;22;20463;-78
2021/07/10 10:22:55;;;;;;;0.28;0.28;;;;;;;23.56;44.30;92863.31;6281681;22;20019;-78
2021/07/10 10:25:23;;;;;;;0.20;0.20;;;;;;;23.07;47.24;92867.44;6278772;22;20459;-78
2021/07/10 10:27:50;;;;;;;0.40;0.40;;;;;;;23.16;45.61;92864.56;6281778;22;20012;-79
2021/07/10 10:30:17;;;;;;;0.20;0.20;;;;;;;23.20;43.93;92859.28;6281076;22;20094;-78
2021/07/10 10:32:43;;;;;;;0.20;0.20;;;;;;;23.19;43.44;92863.84;6282092;22;20018;-78
2021/07/10 10:35:09;;;;;;;0.40;0.40;;;;;;;23.24;43.66;92860.13;6280876;22;20042;-79
2021/07/10 10:37:38;;;;;;;0.20;0.20;;;;;;;23.52;41.63;92853.69;6282028;22;20038;-79
2021/07/10 10:40:16;;;;;;;0.30;0.30;;;;;;;23.66;41.49;92859.25;6282238;22;20042;-79
2021/07/10 10:42:50;;;;;;;0.20;0.20;;;;;;;23.77;42.77;92852.19;6282651;22;20012;-79
2021/07/10 10:45:16;;;;;;;0.20;0.20;;;;;;;23.76;42.64;92856.00;6256272;22;20019;-79
2021/07/10 10:47:50;;;;;;;0.30;0.30;;;;;;;23.40;41.27;92857.31;6282473;22;20343;-79
2021/07/10 10:50:23;;;;;;;0.30;0.30;;;;;;;24.01;42.23;92852.91;6282695;22;20023;-79
2021/07/10 10:52:51;;;;;;;0.20;0.20;;;;;;;24.01;42.06;92852.91;6280725;22;20026;-79
2021/07/10 10:55:29;;;;;;;0.30;0.30;;;;;;;23.52;42.13;92859.03;6254621;22;20019;-79
2021/07/10 10:57:56;;;;;;;0.35;0.30;;;;;;;23.74;43.95;92847.53;6281895;22;20058;-79
2021/07/10 11:00:24;;;;;;;0.10;0.10;;;;;;;24.22;42.61;92855.84;6281111;22;20055;-79
2021/07/10 11:03:05;;;;;;;0.20;0.20;;;;;;;24.48;41.25;92859.66;6282440;22;20015;-79
2021/07/10 11:05:31;;;;;;;0.20;0.20;;;;;;;24.41;43.38;92843.47;6282586;22;20022;-79
2021/07/10 11:08:21;;;;;;;0.25;0.25;;;;;;;24.03;41.73;92839.97;6280390;22;20522;-78
2021/07/10 11:11:07;;;;;;;0.30;0.30;;;;;;;24.75;44.08;92843.53;6281850;22;20004;-79
2021/07/10 11:13:33;;;;;;;0.50;0.50;;;;;;;24.80;42.28;92851.22;6264647;22;20470;-79
2021/07/10 11:16:07;;;;;;;0.40;0.30;;;;;;;24.47;44.39;92836.69;6279973;22;20011;-79
2021/07/10 11:18:58;;;;;;;0.30;0.30;;;;;;;24.47;42.88;92842.03;6279420;22;20011;-80
2021/07/10 11:21:41;;;;;;;0.63;0.60;;;;;;;24.00;41.00;92843.34;6253827;22;20028;-78
2021/07/10 11:24:19;;;;;;;0.20;0.20;;;;;;;23.89;42.21;92840.53;6253132;22;20008;-78
2021/07/10 11:26:54;;;;;;;0.30;0.30;;;;;;;24.57;42.68;92836.06;6279380;22;20049;-78
2021/07/10 11:29:23;;;;;;;0.35;0.35;;;;;;;24.77;41.37;92838.56;6254385;22;20095;-78
2021/07/10 11:31:53;;;;;;;0.38;0.38;;;;;;;24.82;41.60;92835.56;6256037;22;20008;-79
2021/07/10 11:34:33;;;;;;;0.80;0.80;;;;;;;25.17;39.74;92839.72;6256359;22;20016;-78
2021/07/10 11:37:10;;;;;;;0.40;0.40;;;;;;;25.11;42.16;92829.34;6281791;22;20007;-78
2021/07/10 11:39:38;;;;;;;0.30;0.30;;;;;;;24.77;41.73;92834.00;6283559;22;20026;-78
2021/07/10 11:42:23;;;;;;;0.43;0.40;;;;;;;25.06;42.30;92840.41;6282285;22;20014;-78
2021/07/10 11:45:04;;;;;;;0.20;0.20;;;;;;;24.79;42.26;92826.38;6255683;22;20018;-79
2021/07/10 11:47:34;;;;;;;0.30;0.30;;;;;;;24.81;40.52;92832.09;6283523;22;20011;-78
2021/07/10 11:50:04;;;;;;;0.40;0.40;;;;;;;24.27;41.60;92825.34;6282366;22;20019;-78
2021/07/10 11:52:29;;;;;;;0.52;0.52;;;;;;;24.48;41.80;92827.56;6281383;22;20015;-78
2021/07/10 11:54:57;;;;;;;0.40;0.40;;;;;;;24.36;41.19;92819.72;6281857;22;20026;-79
2021/07/10 11:57:32;;;;;;;0.30;0.30;;;;;;;24.41;41.64;92827.41;6273907;22;20089;-77
2021/07/10 11:59:59;;;;;;;0.38;0.38;;;;;;;24.42;42.47;92820.94;6272967;22;20008;-77
2021/07/10 12:02:31;;;;;;;0.65;0.65;;;;;;;23.97;42.17;92815.44;6246834;22;20024;-77
2021/07/10 12:05:15;;;;;;;0.30;0.30;;;;;;;23.79;42.71;92811.75;6273568;22;20011;-77
2021/07/10 12:07:48;;;;;;;0.35;0.35;;;;;;;24.52;43.85;92818.44;6274312;22;20118;-77
2021/07/10 12:10:29;;;;;;;0.35;0.35;;;;;;;25.57;42.53;92808.69;6273346;22;20018;-77
2021/07/10 12:12:58;;;;;;;0.32;0.32;;;;;;;25.22;39.98;92809.94;6273345;22;20062;-77
2021/07/10 12:15:27;;;;;;;0.38;0.30;;;;;;;25.11;40.16;92802.56;6273065;22;20474;-78
2021/07/10 12:17:55;;;;;;;0.20;0.20;;;;;;;25.34;38.79;92797.03;6248236;22;20059;-77
2021/07/10 12:20:48;;;;;;;0.30;0.30;;;;;;;24.87;41.28;92795.84;6272936;22;20027;-78
2021/07/10 12:23:23;;;;;;;0.20;0.20;;;;;;;25.08;39.86;92791.81;6275615;22;20462;-77
2021/07/10 12:26:02;;;;;;;0.40;0.40;;;;;;;25.20;41.08;92790.81;6275249;22;20067;-77
2021/07/10 12:28:53;;;;;;;0.30;0.30;;;;;;;24.48;40.80;92795.44;6275282;22;20350;-77
2021/07/10 12:31:35;;;;;;;0.35;0.35;;;;;;;25.12;37.83;92792.63;6263846;22;20015;-77
2021/07/10 12:34:04;;;;;;;0.22;0.22;;;;;;;25.11;39.65;92791.09;6274845;22;20012;-78
2021/07/10 12:36:41;;;;;;;0.20;0.20;;;;;;;24.40;39.81;92791.13;6272768;22;20111;-78
2021/07/10 12:39:20;;;;;;;0.55;0.50;;;;;;;24.16;41.49;92790.47;6274968;22;20398;-77
2021/07/10 12:41:59;;;;;;;0.47;0.47;;;;;;;24.51;40.86;92795.47;6272643;22;20439;-77
2021/07/10 12:44:39;;;;;;;0.30;0.30;;;;;;;24.06;41.55;92796.44;6274049;22;20482;-77
2021/07/10 12:47:17;;;;;;;0.30;0.30;;;;;;;24.59;41.34;92798.22;6274482;22;20015;-78
2021/07/10 12:49:43;;;;;;;0.40;0.40;;;;;;;24.45;37.80;92788.09;6273865;22;20498;-77
2021/07/10 12:52:35;;;;;;;0.57;0.40;;;;;;;24.49;36.51;92796.97;6273602;22;20008;-77
2021/07/10 12:55:10;;;;;;;;;;;;;;;24.57;36.04;92801.28;6271043;22;20008;-78
2021/07/10 12:57:41;;;;;;;0.25;0.25;;;;;;;24.79;36.66;92794.25;6271917;22;19907;-76
2021/07/10 13:00:11;;;;;;;0.20;0.20;;;;;;;25.01;37.36;92789.06;6273836;22;20007;-77
2021/07/10 13:02:43;;;;;;;0.45;0.32;;;;;;;25.35;36.16;92792.44;6273388;22;20019;-80
2021/07/10 13:05:25;;;;;;;0.28;0.28;;;;;;;25.10;34.22;92784.19;6270268;22;20473;-77
2021/07/10 13:08:15;;;;;;;0.28;0.28;;;;;;;25.48;35.47;92790.25;6271305;22;20455;-77
2021/07/10 13:10:50;;;;;;;0.40;0.40;;;;;;;25.63;33.63;92783.84;6271965;22;20416;-77
2021/07/10 13:13:26;;;;;;;0.28;0.28;;;;;;;24.90;37.23;92776.38;6243919;22;20031;-76
2021/07/10 13:15:57;;;;;;;0.20;0.20;;;;;;;24.71;38.48;92788.03;6269077;22;20007;-76
2021/07/10 13:18:30;;;;;;;0.32;0.32;;;;;;;24.97;37.13;92782.91;6274379;22;20011;-77
2021/07/10 13:20:57;;;;;;;0.30;0.30;;;;;;;24.45;38.39;92788.09;6278754;22;20105;-77
2021/07/10 13:23:27;;;;;;;0.47;0.47;;;;;;;24.87;36.33;92795.06;6252396;22;20046;-77
2021/07/10 13:25:53;;;;;;;0.20;0.20;;;;;;;24.70;34.66;92797.22;6274797;22;20024;-78
2021/07/10 13:28:26;;;;;;;0.20;0.20;;;;;;;24.55;33.22;92790.16;6273704;22;20018;-78
2021/07/10 13:30:54;;;;;;;0.20;0.20;;;;;;;25.03;32.19;92786.81;6272366;22;20019;-76
2021/07/10 13:33:36;;;;;;;0.28;0.28;;;;;;;24.60;34.83;92786.41;6245931;22;20023;-77
2021/07/10 13:36:12;;;;;;;0.98;0.63;;;;;;;24.30;36.24;92784.53;6273373;22;20039;-77
2021/07/10 13:38:39;;;;;;;0.30;0.30;;;;;;;24.35;37.35;92786.09;6274175;22;20015;-77
2021/07/10 13:41:24;;;;;;;0.20;0.20;;;;;;;24.03;39.24;92781.13;6275810;22;20325;-78
2021/07/10 13:44:04;;;;;;;0.22;0.22;;;;;;;24.29;39.84;92772.25;6273852;22;20317;-77
2021/07/10 13:46:38;;;;;;;0.40;0.40;;;;;;;24.20;40.56;92769.88;6270949;22;20486;-76
2021/07/10 13:49:25;;;;;;;0.32;0.32;;;;;;;24.51;39.71;92775.97;6273585;22;20012;-76
2021/07/10 13:51:58;;;;;;;0.57;0.50;;;;;;;25.17;41.62;92772.75;6245617;22;20011;-76
2021/07/10 13:55:00;;;;;;;0.35;0.35;;;;;;;24.59;38.43;92763.44;6245540;22;20015;-76
2021/07/10 13:57:47;;;;;;;0.70;0.70;;;;;;;25.14;38.70;92760.88;6272301;22;20313;-78
2021/07/10 14:00:16;;;;;;;0.45;0.43;;;;;;;25.16;39.03;92755.94;6273362;22;20011;-77
2021/07/10 14:02:55;;;;;;;0.30;0.30;;;;;;;25.10;34.91;92757.41;6270669;22;20012;-77
2021/07/10 14:05:32;;;;;;;0.28;0.28;;;;;;;25.11;35.05;92762.41;6271524;22;20022;-76
2021/07/10 14:08:04;;;;;;;0.50;0.45;;;;;;;25.01;34.59;92756.94;6245671;22;20015;-76
2021/07/10 14:10:38;;;;;;;0.28;0.28;;;;;;;25.00;33.81;92748.16;6270835;22;20015;-77
2021/07/10 14:13:17;;;;;;;0.17;0.17;;;;;;;24.95;34.83;92753.84;6271875;22;20035;-76
2021/07/10 14:15:48;;;;;;;0.30;0.30;;;;;;;24.81;38.19;92753.72;6246441;22;20347;-77
2021/07/10 14:18:14;;;;;;;0.32;0.32;;;;;;;24.57;37.63;92752.34;6272493;22;20065;-77
2021/07/10 14:20:45;;;;;;;0.40;0.40;;;;;;;24.35;38.35;92743.28;6273621;22;20085;-78
2021/07/10 14:23:11;;;;;;;0.20;0.20;;;;;;;24.61;37.87;92755.81;6271790;22;20397;-79
2021/07/10 14:25:37;;;;;;;0.30;0.30;;;;;;;24.50;39.66;92750.38;6272868;22;20122;-77
2021/07/10 14:28:03;;;;;;;0.57;0.52;;;;;;;24.81;41.04;92743.00;6246341;22;20004;-78
2021/07/10 14:30:31;;;;;;;0.40;0.40;;;;;;;25.51;39.09;92742.06;6273267;22;20008;-78
2021/07/10 14:32:59;;;;;;;0.35;0.35;;;;;;;26.30;38.26;92742.44;6272205;22;20017;-77
2021/07/10 14:35:27;;;;;;;0.30;0.30;;;;;;;26.61;35.47;92734.88;6272534;22;20083;-78
2021/07/10 14:37:54;;;;;;;0.38;0.38;;;;;;;26.23;35.48;92726.34;6270675;22;20031;-77
2021/07/10 14:40:23;;;;;;;0.30;0.30;;;;;;;25.67;39.06;92728.34;6270960;22;20015;-77
2021/07/10 14:42:50;;;;;;;0.40;0.40;;;;;;;25.53;38.76;92726.38;6269337;22;20011;-78
2021/07/10 14:45:16;;;;;;;0.40;0.40;;;;;;;25.48;37.33;92726.69;6268873;22;20038;-77
2021/07/10 14:47:42;;;;;;;0.38;0.38;;;;;;;25.24;39.02;92721.94;6270881;22;20098;-77
2021/07/10 14:50:09;;;;;;;0.68;0.55;;;;;;;25.19;38.81;92720.38;6270642;22;20011;-77
2021/07/10 14:52:35;;;;;;;0.40;0.40;;;;;;;25.29;38.43;92725.06;6270050;22;20057;-77
2021/07/10 14:55:03;;;;;;;0.30;0.30;;;;;;;24.75;39.76;92728.44;6273365;22;20035;-77
2021/07/10 14:57:29;;;;;;;0.40;0.40;;;;;;;24.98;41.01;92720.97;6245510;22;20012;-77
2021/07/10 14:59:54;;;;;;;0.10;0.10;;;;;;;24.87;39.76;92715.53;6272449;22;20026;-77
2021/07/10 15:02:22;;;;;;;0.38;0.32;;;;;;;25.04;40.68;92719.50;6272500;22;20081;-77
2021/07/10 15:04:48;;;;;;;0.35;0.35;;;;;;;25.09;39.38;92716.47;6272495;22;20015;-77
2021/07/10 15:07:14;;;;;;;0.30;0.30;;;;;;;25.46;40.84;92720.94;6272346;22;20020;-78
2021/07/10 15:09:40;;;;;;;0.50;0.50;;;;;;;25.74;40.81;92727.63;6244619;22;20027;-77
2021/07/10 15:12:07;;;;;;;1.15;0.60;;;;;;;25.52;39.30;92722.13;6270294;22;20016;-77
2021/07/10 15:14:33;;;;;;;0.50;0.50;;;;;;;25.69;40.37;92731.44;6272188;22;20022;-77
2021/07/10 15:16:58;;;;;;;1.00;0.63;;;;;;;24.71;40.56;92729.16;6244148;22;20012;-77
2021/07/10 15:19:24;;;;;;;0.63;0.60;;;;;;;25.36;38.47;92702.91;6241141;22;20551;-77
2021/07/10 15:21:50;;;;;;;0.50;0.50;;;;;;;25.57;39.32;92720.25;6271802;22;20054;-78
2021/07/10 15:24:16;;;;;;;0.50;0.50;;;;;;;25.92;40.11;92715.09;6272243;22;20424;-77
2021/07/10 15:26:41;;;;;;;0.52;0.45;;;;;;;25.88;39.69;92717.00;6270009;22;20046;-77
2021/07/10 15:29:07;;;;;;;0.35;0.35;;;;;;;26.49;39.95;92711.81;6271429;22;20020;-77
2021/07/10 15:31:32;;;;;;;0.75;0.60;;;;;;;26.53;37.05;92706.47;6294931;22;20212;-77
2021/07/10 15:34:02;;;;;;;0.38;0.38;;;;;;;26.81;39.23;92705.00;6270987;22;20027;-77
2021/07/10 15:36:31;;;;;;;0.63;0.40;;;;;;;26.94;38.67;92698.84;6270786;22;20011;-77
2021/07/10 15:38:59;;;;;;;0.60;0.57;;;;;;;27.25;37.11;92693.13;6270663;22;20329;-78
2021/07/10 15:41:24;;;;;;;0.77;0.70;;;;;;;26.85;38.48;92684.28;6292677;22;20016;-77
2021/07/10 15:43:50;;;;;;;0.65;0.65;;;;;;;26.98;39.00;92691.56;6294755;22;20039;-78
2021/07/10 15:46:16;;;;;;;0.60;0.55;;;;;;;27.29;37.85;92685.81;6270078;22;20012;-77
2021/07/10 15:48:41;;;;;;;0.47;0.47;;;;;;;27.47;37.85;92683.09;6293135;22;20907;-77
2021/07/10 15:51:07;;;;;;;0.75;0.50;;;;;;;27.35;37.92;92681.56;6270240;22;20070;-77
2021/07/10 15:53:33;;;;;;;0.70;0.50;;;;;;;27.61;37.84;92680.38;6271222;22;20431;-77
2021/07/10 15:55:59;;;;;;;0.50;0.50;;;;;;;27.48;37.17;92674.66;6272942;22;20008;-77
2021/07/10 15:58:25;;;;;;;0.63;0.50;;;;;;;27.63;37.14;92675.38;6273205;22;20026;-77
2021/07/10 16:00:52;;;;;;;0.68;0.60;;;;;;;27.80;36.08;92673.78;6268788;22;20797;-78
2021/07/10 16:03:18;;;;;;;0.60;0.60;;;;;;;26.94;36.95;92663.19;6270578;22;20339;-77
2021/07/10 16:05:44;;;;;;;0.52;0.52;;;;;;;26.85;36.63;92663.56;6271336;22;20012;-77
2021/07/10 16:08:10;;;;;;;0.45;0.45;;;;;;;26.90;36.33;92659.72;6272042;22;20098;-79
2021/07/10 16:10:36;;;;;;;0.40;0.40;;;;;;;27.07;36.75;92658.94;6268877;22;20073;-77
2021/07/10 16:13:04;;;;;;;0.40;0.40;;;;;;;27.27;37.50;92664.72;6266587;22;20015;-78